Gulf — V2BB5 — position and weather

sailwx.info

Track history (hours):
 
Tides and Currents Weather Stations Pressure Air Temp Water Temp Dewpoint Dewpoint Depression Visibility Wind Speed Wind Dir Waves Ship Positions

Gulf

Last reported at 2017-Jul-24 04:24 UTC. Time now 2017-Jul-25 16:46 UTC.
Position N 36°25' W 002°14'.

Length 96 m; draft 5.6 m.

Type: Cargo ship. MMSI: 304320000.

Date/timePositionNaut miles runAvg speedWind from/ knotsBaromVisibWave heightAir tempDewpointWater temp
2017-Jul-24 04:24N 36°25' W 002°14'43 8.2
2017-Jul-23 23:10N 36°53' W 001°33'2 8.4
2017-Jul-23 22:57N 36°54' W 001°32'4 8.5
2017-Jul-23 22:30N 36°57' W 001°28'6 8.5
2017-Jul-23 21:50N 37°00' W 001°22'6 8.1
2017-Jul-23 21:04N 37°04' W 001°16'12 8.1
2017-Jul-23 19:34N 37°13' W 001°06'2 8.2
2017-Jul-23 19:19N 37°14' W 001°04'7 8.1
2017-Jul-23 18:24N 37°19' W 000°56'16 8.2
2017-Jul-23 16:28N 37°29' W 000°41'5 8.3
2017-Jul-23 15:51N 37°32' W 000°36'  
2017-Jul-20 18:02N 39°58' E 000°06'0 0.0
2017-Jul-20 17:38N 39°58' E 000°06'0 0.3
2017-Jul-20 17:30N 39°58' E 000°06'89 8.1
2017-Jul-20 06:32N 38°32' E 000°36'0 9.8
2017-Jul-20 06:30N 38°32' E 000°36'5 9.9
2017-Jul-20 05:59N 38°27' E 000°38'510.0
2017-Jul-20 05:30N 38°22' E 000°40'610.0
2017-Jul-20 04:54N 38°16' E 000°42'510.0
2017-Jul-20 04:27N 38°12' E 000°44'910.1
2017-Jul-20 03:36N 38°04' E 000°47'110.1
2017-Jul-20 03:30N 38°03' E 000°47'810.0
2017-Jul-20 02:44N 37°55' E 000°49'18 9.7
2017-Jul-20 00:55N 37°38' E 000°55'13 9.9
2017-Jul-19 23:37N 37°26' E 000°59'2 9.9
2017-Jul-19 23:27N 37°24' E 000°60'510.0
2017-Jul-19 23:00N 37°20' E 001°01'610.0
2017-Jul-19 22:24N 37°14' E 001°03'2 4.7
2017-Jul-19 22:00N 37°12' E 001°04'3 4.2
2017-Jul-19 21:19N 37°10' E 001°05'310.0
2017-Jul-19 21:00N 37°07' E 001°06'510.0
2017-Jul-19 20:30N 37°02' E 001°08'610.4
2017-Jul-19 19:55N 36°56' E 001°10'410.3
2017-Jul-19 19:30N 36°52' E 001°12'510.0
2017-Jul-19 19:00N 36°47' E 001°13'4 8.8
2017-Jul-19 18:29N 36°43' E 001°15'7 8.7
2017-Jul-19 17:44N 36°36' E 001°17'5 0.3
2017-Jul-18 22:33N 36°31' E 001°19'0 0.0
2017-Jul-18 22:29N 36°31' E 001°19'0 0.0
2017-Jul-18 19:22N 36°31' E 001°19'0 0.0
2017-Jul-18 17:52N 36°31' E 001°19'0 0.0
2017-Jul-18 17:20N 36°31' E 001°19'0 0.0
2017-Jul-18 16:43N 36°31' E 001°19'0 0.0
2017-Jul-18 16:30N 36°31' E 001°19'0 0.0
2017-Jul-18 15:52N 36°31' E 001°19'0 0.0
2017-Jul-18 07:31N 36°31' E 001°19'0 0.1
2017-Jul-18 07:30N 36°31' E 001°19'0 0.0
2017-Jul-18 06:57N 36°31' E 001°19'0 0.0
2017-Jul-18 06:25N 36°31' E 001°19'0 0.0
2017-Jul-18 05:55N 36°31' E 001°19'0 0.0
2017-Jul-18 05:30N 36°31' E 001°19'0 0.0
2017-Jul-18 04:55N 36°31' E 001°19'0 0.0
2017-Jul-18 04:25N 36°31' E 001°19'0 0.0
2017-Jul-18 03:43N 36°31' E 001°19'0 0.0
2017-Jul-18 03:25N 36°31' E 001°19'0 0.0
2017-Jul-18 02:55N 36°31' E 001°19'0 0.0
2017-Jul-18 02:27N 36°31' E 001°19'0 0.0
2017-Jul-18 01:54N 36°31' E 001°19'0 0.0
2017-Jul-18 01:19N 36°31' E 001°19'0 0.0
2017-Jul-18 00:59N 36°31' E 001°19'0 0.0
2017-Jul-18 00:25N 36°31' E 001°19'0 0.0
2017-Jul-17 23:59N 36°31' E 001°19'0 0.0
2017-Jul-17 23:30N 36°31' E 001°19'0 0.0
2017-Jul-17 20:01N 36°31' E 001°19'0 0.0
2017-Jul-17 19:55N 36°31' E 001°19'0 0.0
2017-Jul-17 19:25N 36°31' E 001°19'0 0.0
2017-Jul-17 18:55N 36°31' E 001°19'0 0.0
2017-Jul-17 18:29N 36°31' E 001°19'0 0.0
2017-Jul-17 10:40N 36°31' E 001°19'0 0.0
2017-Jul-17 10:28N 36°31' E 001°19'0 0.0
2017-Jul-17 09:58N 36°31' E 001°19'0 0.0
2017-Jul-17 08:43N 36°31' E 001°19'1 0.7
2017-Jul-17 07:18N 36°32' E 001°18'1 1.8
2017-Jul-17 07:00N 36°31' E 001°17'0 0.1
2017-Jul-17 03:50N 36°31' E 001°17'58 3.9
2017-Jul-16 12:56N 36°27' E 000°05'  
Track history (hours):
 
Tides and Currents Weather Stations Pressure Air Temp Water Temp Dewpoint Dewpoint Depression Visibility Wind Speed Wind Dir Waves Ship Positions

Gulf

Last reported at 2017-Jul-24 04:24 UTC. Time now 2017-Jul-25 16:46 UTC.
Position N 36°25' W 002°14'.

Length 96 m; draft 5.6 m.

Type: Cargo ship. MMSI: 304320000.

Date/timePositionNaut miles runAvg speedWind from/ knotsBaromVisibWave heightAir tempDewpointWater temp
2017-Jul-24 04:24N 36°25' W 002°14'43 8.2
2017-Jul-23 23:10N 36°53' W 001°33'2 8.4
2017-Jul-23 22:57N 36°54' W 001°32'4 8.5
2017-Jul-23 22:30N 36°57' W 001°28'6 8.5
2017-Jul-23 21:50N 37°00' W 001°22'6 8.1
2017-Jul-23 21:04N 37°04' W 001°16'12 8.1
2017-Jul-23 19:34N 37°13' W 001°06'2 8.2
2017-Jul-23 19:19N 37°14' W 001°04'7 8.1
2017-Jul-23 18:24N 37°19' W 000°56'16 8.2
2017-Jul-23 16:28N 37°29' W 000°41'5 8.3
2017-Jul-23 15:51N 37°32' W 000°36'  
2017-Jul-20 18:02N 39°58' E 000°06'0 0.0
2017-Jul-20 17:38N 39°58' E 000°06'0 0.3
2017-Jul-20 17:30N 39°58' E 000°06'89 8.1
2017-Jul-20 06:32N 38°32' E 000°36'0 9.8
2017-Jul-20 06:30N 38°32' E 000°36'5 9.9
2017-Jul-20 05:59N 38°27' E 000°38'510.0
2017-Jul-20 05:30N 38°22' E 000°40'610.0
2017-Jul-20 04:54N 38°16' E 000°42'510.0
2017-Jul-20 04:27N 38°12' E 000°44'910.1
2017-Jul-20 03:36N 38°04' E 000°47'110.1
2017-Jul-20 03:30N 38°03' E 000°47'810.0
2017-Jul-20 02:44N 37°55' E 000°49'18 9.7
2017-Jul-20 00:55N 37°38' E 000°55'13 9.9
2017-Jul-19 23:37N 37°26' E 000°59'2 9.9
2017-Jul-19 23:27N 37°24' E 000°60'510.0
2017-Jul-19 23:00N 37°20' E 001°01'610.0
2017-Jul-19 22:24N 37°14' E 001°03'2 4.7
2017-Jul-19 22:00N 37°12' E 001°04'3 4.2
2017-Jul-19 21:19N 37°10' E 001°05'310.0
2017-Jul-19 21:00N 37°07' E 001°06'510.0
2017-Jul-19 20:30N 37°02' E 001°08'610.4
2017-Jul-19 19:55N 36°56' E 001°10'410.3
2017-Jul-19 19:30N 36°52' E 001°12'510.0
2017-Jul-19 19:00N 36°47' E 001°13'4 8.8
2017-Jul-19 18:29N 36°43' E 001°15'7 8.7
2017-Jul-19 17:44N 36°36' E 001°17'5 0.3
2017-Jul-18 22:33N 36°31' E 001°19'0 0.0
2017-Jul-18 22:29N 36°31' E 001°19'0 0.0
2017-Jul-18 19:22N 36°31' E 001°19'0 0.0
2017-Jul-18 17:52N 36°31' E 001°19'0 0.0
2017-Jul-18 17:20N 36°31' E 001°19'0 0.0
2017-Jul-18 16:43N 36°31' E 001°19'0 0.0
2017-Jul-18 16:30N 36°31' E 001°19'0 0.0
2017-Jul-18 15:52N 36°31' E 001°19'0 0.0
2017-Jul-18 07:31N 36°31' E 001°19'0 0.1
2017-Jul-18 07:30N 36°31' E 001°19'0 0.0
2017-Jul-18 06:57N 36°31' E 001°19'0 0.0
2017-Jul-18 06:25N 36°31' E 001°19'0 0.0
2017-Jul-18 05:55N 36°31' E 001°19'0 0.0
2017-Jul-18 05:30N 36°31' E 001°19'0 0.0
2017-Jul-18 04:55N 36°31' E 001°19'0 0.0
2017-Jul-18 04:25N 36°31' E 001°19'0 0.0
2017-Jul-18 03:43N 36°31' E 001°19'0 0.0
2017-Jul-18 03:25N 36°31' E 001°19'0 0.0
2017-Jul-18 02:55N 36°31' E 001°19'0 0.0
2017-Jul-18 02:27N 36°31' E 001°19'0 0.0
2017-Jul-18 01:54N 36°31' E 001°19'0 0.0
2017-Jul-18 01:19N 36°31' E 001°19'0 0.0
2017-Jul-18 00:59N 36°31' E 001°19'0 0.0
2017-Jul-18 00:25N 36°31' E 001°19'0 0.0
2017-Jul-17 23:59N 36°31' E 001°19'0 0.0
2017-Jul-17 23:30N 36°31' E 001°19'0 0.0
2017-Jul-17 20:01N 36°31' E 001°19'0 0.0
2017-Jul-17 19:55N 36°31' E 001°19'0 0.0
2017-Jul-17 19:25N 36°31' E 001°19'0 0.0
2017-Jul-17 18:55N 36°31' E 001°19'0 0.0
2017-Jul-17 18:29N 36°31' E 001°19'0 0.0
2017-Jul-17 10:40N 36°31' E 001°19'0 0.0
2017-Jul-17 10:28N 36°31' E 001°19'0 0.0
2017-Jul-17 09:58N 36°31' E 001°19'0 0.0
2017-Jul-17 08:43N 36°31' E 001°19'1 0.7
2017-Jul-17 07:18N 36°32' E 001°18'1 1.8
2017-Jul-17 07:00N 36°31' E 001°17'0 0.1
2017-Jul-17 03:50N 36°31' E 001°17'58 3.9
2017-Jul-16 12:56N 36°27' E 000°05'  

Dump ship's entire track history